sensor_id;sensor_type;location;lat;lon;timestamp;P1;durP1;ratioP1;P2;durP2;ratioP2
80725;SDS011;70113;59.928;10.878;2024-01-06T00:07:20;6.88;;;3.17;;
80725;SDS011;70113;59.928;10.878;2024-01-06T00:09:46;7.55;;;3.92;;
80725;SDS011;70113;59.928;10.878;2024-01-06T00:12:12;8.55;;;4.13;;
80725;SDS011;70113;59.928;10.878;2024-01-06T00:14:38;10.48;;;4.70;;
80725;SDS011;70113;59.928;10.878;2024-01-06T00:17:03;8.93;;;4.38;;
80725;SDS011;70113;59.928;10.878;2024-01-06T00:19:29;10.18;;;4.38;;
80725;SDS011;70113;59.928;10.878;2024-01-06T00:21:54;6.90;;;4.10;;
80725;SDS011;70113;59.928;10.878;2024-01-06T00:24:20;7.72;;;4.88;;
80725;SDS011;70113;59.928;10.878;2024-01-06T00:26:45;9.55;;;4.22;;
80725;SDS011;70113;59.928;10.878;2024-01-06T00:29:11;9.80;;;4.43;;
80725;SDS011;70113;59.928;10.878;2024-01-06T00:31:37;8.90;;;4.28;;
80725;SDS011;70113;59.928;10.878;2024-01-06T00:34:03;8.38;;;3.65;;
80725;SDS011;70113;59.928;10.878;2024-01-06T00:36:28;6.82;;;4.00;;
80725;SDS011;70113;59.928;10.878;2024-01-06T00:38:54;7.60;;;4.30;;
80725;SDS011;70113;59.928;10.878;2024-01-06T00:41:19;8.00;;;3.75;;
80725;SDS011;70113;59.928;10.878;2024-01-06T00:43:45;10.77;;;4.63;;
80725;SDS011;70113;59.928;10.878;2024-01-06T00:46:11;9.80;;;5.30;;
80725;SDS011;70113;59.928;10.878;2024-01-06T00:48:36;6.68;;;4.07;;
80725;SDS011;70113;59.928;10.878;2024-01-06T00:51:02;8.18;;;3.97;;
80725;SDS011;70113;59.928;10.878;2024-01-06T00:53:28;9.50;;;4.35;;
80725;SDS011;70113;59.928;10.878;2024-01-06T00:55:53;6.72;;;3.67;;
80725;SDS011;70113;59.928;10.878;2024-01-06T00:58:19;9.70;;;3.95;;
80725;SDS011;70113;59.928;10.878;2024-01-06T01:00:44;6.60;;;3.92;;
80725;SDS011;70113;59.928;10.878;2024-01-06T01:03:10;6.78;;;3.35;;
80725;SDS011;70113;59.928;10.878;2024-01-06T01:05:36;7.97;;;3.88;;
80725;SDS011;70113;59.928;10.878;2024-01-06T01:08:01;6.85;;;4.18;;
80725;SDS011;70113;59.928;10.878;2024-01-06T01:10:27;6.57;;;3.83;;
80725;SDS011;70113;59.928;10.878;2024-01-06T01:12:52;5.63;;;3.60;;
80725;SDS011;70113;59.928;10.878;2024-01-06T01:15:18;7.15;;;3.90;;
80725;SDS011;70113;59.928;10.878;2024-01-06T01:17:44;8.80;;;3.42;;
80725;SDS011;70113;59.928;10.878;2024-01-06T01:20:09;6.78;;;3.15;;
80725;SDS011;70113;59.928;10.878;2024-01-06T01:22:35;6.70;;;3.63;;
80725;SDS011;70113;59.928;10.878;2024-01-06T01:25:00;7.07;;;3.53;;
80725;SDS011;70113;59.928;10.878;2024-01-06T01:27:30;6.57;;;3.53;;
80725;SDS011;70113;59.928;10.878;2024-01-06T01:29:56;9.32;;;3.83;;
80725;SDS011;70113;59.928;10.878;2024-01-06T01:32:21;5.30;;;2.80;;
80725;SDS011;70113;59.928;10.878;2024-01-06T01:34:47;7.10;;;3.53;;
80725;SDS011;70113;59.928;10.878;2024-01-06T01:37:13;12.48;;;4.53;;
80725;SDS011;70113;59.928;10.878;2024-01-06T01:39:38;8.18;;;3.92;;
80725;SDS011;70113;59.928;10.878;2024-01-06T01:42:04;6.63;;;3.28;;
80725;SDS011;70113;59.928;10.878;2024-01-06T01:44:29;7.32;;;3.75;;
80725;SDS011;70113;59.928;10.878;2024-01-06T01:46:55;6.35;;;3.30;;
80725;SDS011;70113;59.928;10.878;2024-01-06T01:49:21;6.22;;;3.53;;
80725;SDS011;70113;59.928;10.878;2024-01-06T01:51:46;6.18;;;3.25;;
80725;SDS011;70113;59.928;10.878;2024-01-06T01:54:12;5.30;;;2.88;;
80725;SDS011;70113;59.928;10.878;2024-01-06T01:56:38;6.45;;;3.40;;
80725;SDS011;70113;59.928;10.878;2024-01-06T01:59:14;6.28;;;3.10;;
80725;SDS011;70113;59.928;10.878;2024-01-06T02:01:40;7.53;;;3.90;;
80725;SDS011;70113;59.928;10.878;2024-01-06T02:04:05;10.63;;;3.60;;
80725;SDS011;70113;59.928;10.878;2024-01-06T02:06:31;8.45;;;3.92;;
80725;SDS011;70113;59.928;10.878;2024-01-06T02:08:57;6.47;;;3.35;;
80725;SDS011;70113;59.928;10.878;2024-01-06T02:11:23;7.63;;;4.25;;
80725;SDS011;70113;59.928;10.878;2024-01-06T02:13:48;9.65;;;4.22;;
80725;SDS011;70113;59.928;10.878;2024-01-06T02:16:14;5.60;;;3.33;;
80725;SDS011;70113;59.928;10.878;2024-01-06T02:18:39;7.78;;;4.68;;
80725;SDS011;70113;59.928;10.878;2024-01-06T02:21:05;7.65;;;4.15;;
80725;SDS011;70113;59.928;10.878;2024-01-06T02:23:33;5.82;;;2.90;;
80725;SDS011;70113;59.928;10.878;2024-01-06T02:25:59;6.47;;;3.50;;
80725;SDS011;70113;59.928;10.878;2024-01-06T02:28:25;6.60;;;3.17;;
80725;SDS011;70113;59.928;10.878;2024-01-06T02:30:50;6.32;;;3.40;;
80725;SDS011;70113;59.928;10.878;2024-01-06T02:33:16;6.22;;;3.05;;
80725;SDS011;70113;59.928;10.878;2024-01-06T02:35:42;7.57;;;3.00;;
80725;SDS011;70113;59.928;10.878;2024-01-06T02:38:08;9.57;;;4.22;;
80725;SDS011;70113;59.928;10.878;2024-01-06T02:40:34;7.60;;;4.13;;
80725;SDS011;70113;59.928;10.878;2024-01-06T02:43:00;5.53;;;3.38;;
80725;SDS011;70113;59.928;10.878;2024-01-06T02:45:26;7.45;;;3.28;;
80725;SDS011;70113;59.928;10.878;2024-01-06T02:47:51;5.93;;;3.08;;
80725;SDS011;70113;59.928;10.878;2024-01-06T02:50:17;6.95;;;3.97;;
80725;SDS011;70113;59.928;10.878;2024-01-06T02:52:43;6.13;;;2.95;;
80725;SDS011;70113;59.928;10.878;2024-01-06T02:55:09;5.78;;;2.53;;
80725;SDS011;70113;59.928;10.878;2024-01-06T02:57:34;6.25;;;3.88;;
80725;SDS011;70113;59.928;10.878;2024-01-06T03:00:01;6.03;;;3.30;;
80725;SDS011;70113;59.928;10.878;2024-01-06T03:02:27;4.95;;;2.60;;
80725;SDS011;70113;59.928;10.878;2024-01-06T03:04:53;7.45;;;3.72;;
80725;SDS011;70113;59.928;10.878;2024-01-06T03:07:18;6.20;;;2.25;;
80725;SDS011;70113;59.928;10.878;2024-01-06T03:09:44;6.28;;;2.90;;
80725;SDS011;70113;59.928;10.878;2024-01-06T03:12:09;4.35;;;2.75;;
80725;SDS011;70113;59.928;10.878;2024-01-06T03:14:36;6.40;;;2.80;;
80725;SDS011;70113;59.928;10.878;2024-01-06T03:17:01;5.57;;;2.60;;
80725;SDS011;70113;59.928;10.878;2024-01-06T03:19:28;7.28;;;2.50;;
80725;SDS011;70113;59.928;10.878;2024-01-06T03:21:54;7.93;;;3.10;;
80725;SDS011;70113;59.928;10.878;2024-01-06T03:24:20;4.50;;;2.38;;
80725;SDS011;70113;59.928;10.878;2024-01-06T03:26:46;6.07;;;3.28;;
80725;SDS011;70113;59.928;10.878;2024-01-06T03:29:11;6.43;;;2.60;;
80725;SDS011;70113;59.928;10.878;2024-01-06T03:31:37;6.40;;;2.58;;
80725;SDS011;70113;59.928;10.878;2024-01-06T03:34:03;7.57;;;3.72;;
80725;SDS011;70113;59.928;10.878;2024-01-06T03:36:28;5.78;;;2.45;;
80725;SDS011;70113;59.928;10.878;2024-01-06T03:38:54;6.70;;;3.25;;
80725;SDS011;70113;59.928;10.878;2024-01-06T03:41:19;9.25;;;3.17;;
80725;SDS011;70113;59.928;10.878;2024-01-06T03:43:45;6.50;;;3.10;;
80725;SDS011;70113;59.928;10.878;2024-01-06T03:46:10;8.10;;;3.80;;
80725;SDS011;70113;59.928;10.878;2024-01-06T03:48:36;9.68;;;4.28;;
80725;SDS011;70113;59.928;10.878;2024-01-06T03:51:02;7.72;;;3.05;;
80725;SDS011;70113;59.928;10.878;2024-01-06T03:53:28;9.55;;;3.92;;
80725;SDS011;70113;59.928;10.878;2024-01-06T03:55:53;6.95;;;3.28;;
80725;SDS011;70113;59.928;10.878;2024-01-06T03:58:19;7.05;;;3.80;;
80725;SDS011;70113;59.928;10.878;2024-01-06T05:13:36;5.65;;;2.80;;
80725;SDS011;70113;59.928;10.878;2024-01-06T05:16:02;5.45;;;2.65;;
80725;SDS011;70113;59.928;10.878;2024-01-06T05:18:28;5.78;;;2.80;;
80725;SDS011;70113;59.928;10.878;2024-01-06T05:20:54;5.57;;;2.53;;
80725;SDS011;70113;59.928;10.878;2024-01-06T05:23:19;8.27;;;3.95;;
80725;SDS011;70113;59.928;10.878;2024-01-06T05:25:45;5.68;;;2.63;;
80725;SDS011;70113;59.928;10.878;2024-01-06T05:28:10;13.07;;;3.55;;
80725;SDS011;70113;59.928;10.878;2024-01-06T05:30:36;9.63;;;4.45;;
80725;SDS011;70113;59.928;10.878;2024-01-06T05:33:01;5.88;;;3.30;;
80725;SDS011;70113;59.928;10.878;2024-01-06T05:35:28;6.40;;;3.40;;
80725;SDS011;70113;59.928;10.878;2024-01-06T05:37:53;7.70;;;3.97;;
80725;SDS011;70113;59.928;10.878;2024-01-06T05:40:19;6.97;;;2.92;;
80725;SDS011;70113;59.928;10.878;2024-01-06T05:42:44;5.47;;;2.92;;
80725;SDS011;70113;59.928;10.878;2024-01-06T05:45:10;5.25;;;3.17;;
80725;SDS011;70113;59.928;10.878;2024-01-06T05:47:37;7.57;;;2.88;;
80725;SDS011;70113;59.928;10.878;2024-01-06T05:50:03;4.85;;;2.80;;
80725;SDS011;70113;59.928;10.878;2024-01-06T05:52:29;6.25;;;3.08;;
80725;SDS011;70113;59.928;10.878;2024-01-06T05:54:54;5.75;;;2.88;;
80725;SDS011;70113;59.928;10.878;2024-01-06T05:57:20;5.38;;;2.80;;
80725;SDS011;70113;59.928;10.878;2024-01-06T05:59:46;4.93;;;2.80;;
80725;SDS011;70113;59.928;10.878;2024-01-06T06:02:11;5.30;;;2.40;;
80725;SDS011;70113;59.928;10.878;2024-01-06T06:04:37;5.80;;;2.55;;
80725;SDS011;70113;59.928;10.878;2024-01-06T06:07:03;5.85;;;2.85;;
80725;SDS011;70113;59.928;10.878;2024-01-06T06:09:30;5.03;;;2.00;;
80725;SDS011;70113;59.928;10.878;2024-01-06T06:11:55;5.00;;;3.00;;
80725;SDS011;70113;59.928;10.878;2024-01-06T06:14:21;7.28;;;3.10;;
80725;SDS011;70113;59.928;10.878;2024-01-06T06:16:47;6.53;;;3.38;;
80725;SDS011;70113;59.928;10.878;2024-01-06T06:19:13;6.63;;;3.55;;
80725;SDS011;70113;59.928;10.878;2024-01-06T06:21:38;6.40;;;3.10;;
80725;SDS011;70113;59.928;10.878;2024-01-06T06:24:04;6.75;;;3.53;;
80725;SDS011;70113;59.928;10.878;2024-01-06T06:26:30;5.20;;;3.10;;
80725;SDS011;70113;59.928;10.878;2024-01-06T06:28:55;7.28;;;3.65;;
80725;SDS011;70113;59.928;10.878;2024-01-06T06:31:21;4.60;;;2.10;;
80725;SDS011;70113;59.928;10.878;2024-01-06T06:33:47;6.57;;;4.22;;
80725;SDS011;70113;59.928;10.878;2024-01-06T06:36:12;5.43;;;2.72;;
80725;SDS011;70113;59.928;10.878;2024-01-06T06:38:38;6.55;;;3.30;;
80725;SDS011;70113;59.928;10.878;2024-01-06T06:41:03;7.03;;;3.58;;
80725;SDS011;70113;59.928;10.878;2024-01-06T06:43:29;5.95;;;2.97;;
80725;SDS011;70113;59.928;10.878;2024-01-06T06:45:55;5.95;;;2.88;;
80725;SDS011;70113;59.928;10.878;2024-01-06T06:48:23;6.50;;;2.80;;
80725;SDS011;70113;59.928;10.878;2024-01-06T06:50:49;6.57;;;2.70;;
80725;SDS011;70113;59.928;10.878;2024-01-06T06:53:14;7.25;;;3.28;;
80725;SDS011;70113;59.928;10.878;2024-01-06T06:55:40;4.90;;;2.33;;
80725;SDS011;70113;59.928;10.878;2024-01-06T06:58:06;4.97;;;2.83;;
80725;SDS011;70113;59.928;10.878;2024-01-06T07:00:32;7.15;;;3.15;;
80725;SDS011;70113;59.928;10.878;2024-01-06T07:02:57;5.45;;;2.47;;
80725;SDS011;70113;59.928;10.878;2024-01-06T07:05:24;5.30;;;2.65;;
80725;SDS011;70113;59.928;10.878;2024-01-06T07:07:49;7.07;;;2.65;;
80725;SDS011;70113;59.928;10.878;2024-01-06T07:10:15;6.53;;;3.33;;
80725;SDS011;70113;59.928;10.878;2024-01-06T07:32:16;5.15;;;2.85;;
80725;SDS011;70113;59.928;10.878;2024-01-06T07:34:41;5.90;;;3.00;;
80725;SDS011;70113;59.928;10.878;2024-01-06T07:37:08;5.85;;;3.67;;
80725;SDS011;70113;59.928;10.878;2024-01-06T07:39:34;6.35;;;4.22;;
80725;SDS011;70113;59.928;10.878;2024-01-06T07:41:59;6.22;;;2.90;;
80725;SDS011;70113;59.928;10.878;2024-01-06T07:44:25;9.40;;;3.30;;
80725;SDS011;70113;59.928;10.878;2024-01-06T07:46:51;5.93;;;3.28;;
80725;SDS011;70113;59.928;10.878;2024-01-06T07:49:17;8.70;;;3.35;;
80725;SDS011;70113;59.928;10.878;2024-01-06T07:51:42;7.03;;;2.78;;
80725;SDS011;70113;59.928;10.878;2024-01-06T07:54:08;7.80;;;2.88;;
80725;SDS011;70113;59.928;10.878;2024-01-06T07:56:34;4.55;;;2.17;;
80725;SDS011;70113;59.928;10.878;2024-01-06T07:59:03;5.40;;;3.05;;
80725;SDS011;70113;59.928;10.878;2024-01-06T08:01:29;6.75;;;3.15;;
80725;SDS011;70113;59.928;10.878;2024-01-06T08:03:57;6.53;;;2.92;;
80725;SDS011;70113;59.928;10.878;2024-01-06T08:06:22;10.98;;;3.72;;
80725;SDS011;70113;59.928;10.878;2024-01-06T08:08:48;8.38;;;3.20;;
80725;SDS011;70113;59.928;10.878;2024-01-06T08:11:14;9.32;;;4.35;;
80725;SDS011;70113;59.928;10.878;2024-01-06T08:13:40;8.77;;;4.45;;
80725;SDS011;70113;59.928;10.878;2024-01-06T08:16:05;8.93;;;4.40;;
80725;SDS011;70113;59.928;10.878;2024-01-06T08:18:31;7.50;;;4.22;;
80725;SDS011;70113;59.928;10.878;2024-01-06T08:20:56;8.88;;;4.75;;
80725;SDS011;70113;59.928;10.878;2024-01-06T08:23:22;9.10;;;4.25;;
80725;SDS011;70113;59.928;10.878;2024-01-06T08:25:48;7.20;;;3.75;;
80725;SDS011;70113;59.928;10.878;2024-01-06T08:28:13;8.05;;;3.00;;
80725;SDS011;70113;59.928;10.878;2024-01-06T08:30:44;7.82;;;3.78;;
80725;SDS011;70113;59.928;10.878;2024-01-06T08:33:09;7.95;;;3.80;;
80725;SDS011;70113;59.928;10.878;2024-01-06T08:35:35;7.68;;;2.92;;
80725;SDS011;70113;59.928;10.878;2024-01-06T08:38:08;5.03;;;2.42;;
80725;SDS011;70113;59.928;10.878;2024-01-06T08:40:34;5.80;;;3.15;;
80725;SDS011;70113;59.928;10.878;2024-01-06T08:43:00;10.05;;;3.47;;
80725;SDS011;70113;59.928;10.878;2024-01-06T08:45:26;6.18;;;3.05;;
80725;SDS011;70113;59.928;10.878;2024-01-06T08:47:51;6.80;;;3.17;;
80725;SDS011;70113;59.928;10.878;2024-01-06T08:50:17;6.70;;;2.92;;
80725;SDS011;70113;59.928;10.878;2024-01-06T08:52:43;6.43;;;3.63;;
80725;SDS011;70113;59.928;10.878;2024-01-06T08:55:08;9.43;;;4.57;;
80725;SDS011;70113;59.928;10.878;2024-01-06T08:57:34;6.82;;;3.30;;
80725;SDS011;70113;59.928;10.878;2024-01-06T08:59:59;8.20;;;4.13;;
80725;SDS011;70113;59.928;10.878;2024-01-06T09:02:25;9.60;;;5.13;;
80725;SDS011;70113;59.928;10.878;2024-01-06T09:04:50;7.03;;;3.95;;
80725;SDS011;70113;59.928;10.878;2024-01-06T09:07:16;8.18;;;3.45;;
80725;SDS011;70113;59.928;10.878;2024-01-06T09:09:42;9.88;;;4.50;;
80725;SDS011;70113;59.928;10.878;2024-01-06T09:12:08;6.28;;;3.58;;
80725;SDS011;70113;59.928;10.878;2024-01-06T09:14:33;10.52;;;3.95;;
80725;SDS011;70113;59.928;10.878;2024-01-06T09:16:59;8.63;;;4.40;;
80725;SDS011;70113;59.928;10.878;2024-01-06T09:19:25;11.40;;;4.47;;
80725;SDS011;70113;59.928;10.878;2024-01-06T09:21:54;7.28;;;3.85;;
80725;SDS011;70113;59.928;10.878;2024-01-06T09:24:20;7.13;;;3.53;;
80725;SDS011;70113;59.928;10.878;2024-01-06T09:26:46;7.03;;;2.83;;
80725;SDS011;70113;59.928;10.878;2024-01-06T09:29:11;7.57;;;3.40;;
80725;SDS011;70113;59.928;10.878;2024-01-06T09:31:37;6.68;;;3.42;;
80725;SDS011;70113;59.928;10.878;2024-01-06T09:34:02;6.43;;;2.50;;
80725;SDS011;70113;59.928;10.878;2024-01-06T09:36:29;5.88;;;2.97;;
80725;SDS011;70113;59.928;10.878;2024-01-06T09:38:55;9.63;;;4.32;;
80725;SDS011;70113;59.928;10.878;2024-01-06T09:41:20;6.63;;;3.08;;
80725;SDS011;70113;59.928;10.878;2024-01-06T09:43:47;7.00;;;3.47;;
80725;SDS011;70113;59.928;10.878;2024-01-06T09:46:25;5.72;;;3.08;;
80725;SDS011;70113;59.928;10.878;2024-01-06T09:48:52;7.82;;;4.72;;
80725;SDS011;70113;59.928;10.878;2024-01-06T09:51:18;12.95;;;4.03;;
80725;SDS011;70113;59.928;10.878;2024-01-06T09:54:00;7.40;;;4.00;;
80725;SDS011;70113;59.928;10.878;2024-01-06T09:56:26;8.65;;;3.60;;
80725;SDS011;70113;59.928;10.878;2024-01-06T09:58:53;7.03;;;3.13;;
80725;SDS011;70113;59.928;10.878;2024-01-06T10:01:19;9.15;;;4.40;;
80725;SDS011;70113;59.928;10.878;2024-01-06T10:03:45;4.40;;;2.65;;
80725;SDS011;70113;59.928;10.878;2024-01-06T10:06:11;7.95;;;3.72;;
80725;SDS011;70113;59.928;10.878;2024-01-06T10:08:38;8.10;;;3.47;;
80725;SDS011;70113;59.928;10.878;2024-01-06T10:11:06;8.18;;;3.35;;
80725;SDS011;70113;59.928;10.878;2024-01-06T10:16:04;3.70;;;2.35;;
80725;SDS011;70113;59.928;10.878;2024-01-06T10:18:30;7.93;;;2.55;;
80725;SDS011;70113;59.928;10.878;2024-01-06T10:20:56;7.13;;;3.30;;
80725;SDS011;70113;59.928;10.878;2024-01-06T10:23:22;8.85;;;2.90;;
80725;SDS011;70113;59.928;10.878;2024-01-06T10:25:52;7.15;;;3.28;;
80725;SDS011;70113;59.928;10.878;2024-01-06T10:28:18;7.35;;;2.97;;
80725;SDS011;70113;59.928;10.878;2024-01-06T10:30:44;7.57;;;3.53;;
80725;SDS011;70113;59.928;10.878;2024-01-06T10:33:09;7.63;;;3.88;;
80725;SDS011;70113;59.928;10.878;2024-01-06T10:35:39;9.00;;;4.68;;
80725;SDS011;70113;59.928;10.878;2024-01-06T10:38:04;8.10;;;4.53;;
80725;SDS011;70113;59.928;10.878;2024-01-06T10:40:30;7.95;;;4.70;;
80725;SDS011;70113;59.928;10.878;2024-01-06T10:42:56;11.82;;;5.05;;
80725;SDS011;70113;59.928;10.878;2024-01-06T10:45:24;9.07;;;4.93;;
80725;SDS011;70113;59.928;10.878;2024-01-06T10:47:49;10.75;;;5.03;;
80725;SDS011;70113;59.928;10.878;2024-01-06T10:50:18;10.63;;;5.57;;
80725;SDS011;70113;59.928;10.878;2024-01-06T10:52:44;8.23;;;4.03;;
80725;SDS011;70113;59.928;10.878;2024-01-06T10:55:11;9.27;;;4.22;;
80725;SDS011;70113;59.928;10.878;2024-01-06T10:57:40;8.13;;;4.57;;
80725;SDS011;70113;59.928;10.878;2024-01-06T11:00:08;7.70;;;3.90;;
80725;SDS011;70113;59.928;10.878;2024-01-06T11:02:35;7.15;;;4.38;;
80725;SDS011;70113;59.928;10.878;2024-01-06T11:05:01;11.80;;;4.80;;
80725;SDS011;70113;59.928;10.878;2024-01-06T11:07:27;9.10;;;4.22;;
80725;SDS011;70113;59.928;10.878;2024-01-06T11:09:56;6.32;;;3.25;;
80725;SDS011;70113;59.928;10.878;2024-01-06T11:12:23;9.95;;;4.78;;
80725;SDS011;70113;59.928;10.878;2024-01-06T11:14:51;10.40;;;5.43;;
80725;SDS011;70113;59.928;10.878;2024-01-06T11:20:04;11.07;;;5.47;;
80725;SDS011;70113;59.928;10.878;2024-01-06T11:22:30;13.88;;;6.32;;
80725;SDS011;70113;59.928;10.878;2024-01-06T11:25:08;14.32;;;5.78;;
80725;SDS011;70113;59.928;10.878;2024-01-06T11:31:05;8.85;;;4.07;;
80725;SDS011;70113;59.928;10.878;2024-01-06T11:33:33;7.50;;;3.28;;
80725;SDS011;70113;59.928;10.878;2024-01-06T11:36:00;10.57;;;4.72;;
80725;SDS011;70113;59.928;10.878;2024-01-06T11:38:26;9.35;;;4.15;;
80725;SDS011;70113;59.928;10.878;2024-01-06T11:40:52;7.20;;;3.13;;
80725;SDS011;70113;59.928;10.878;2024-01-06T11:43:17;7.75;;;4.43;;
80725;SDS011;70113;59.928;10.878;2024-01-06T11:45:51;6.72;;;3.45;;
80725;SDS011;70113;59.928;10.878;2024-01-06T11:48:18;9.98;;;4.55;;
80725;SDS011;70113;59.928;10.878;2024-01-06T11:50:45;11.70;;;5.38;;
80725;SDS011;70113;59.928;10.878;2024-01-06T11:53:10;9.95;;;6.07;;
80725;SDS011;70113;59.928;10.878;2024-01-06T11:55:38;12.63;;;6.45;;
80725;SDS011;70113;59.928;10.878;2024-01-06T11:58:03;16.27;;;6.72;;
80725;SDS011;70113;59.928;10.878;2024-01-06T12:00:31;15.93;;;7.03;;
80725;SDS011;70113;59.928;10.878;2024-01-06T12:02:57;11.80;;;6.55;;
80725;SDS011;70113;59.928;10.878;2024-01-06T12:05:23;13.10;;;5.45;;
80725;SDS011;70113;59.928;10.878;2024-01-06T12:07:54;13.13;;;5.80;;
80725;SDS011;70113;59.928;10.878;2024-01-06T12:10:23;12.23;;;5.15;;
80725;SDS011;70113;59.928;10.878;2024-01-06T12:15:24;13.23;;;5.90;;
80725;SDS011;70113;59.928;10.878;2024-01-06T12:17:49;9.93;;;5.20;;
80725;SDS011;70113;59.928;10.878;2024-01-06T12:20:15;10.63;;;5.72;;
80725;SDS011;70113;59.928;10.878;2024-01-06T12:22:41;9.02;;;4.57;;
80725;SDS011;70113;59.928;10.878;2024-01-06T12:25:06;14.43;;;6.25;;
80725;SDS011;70113;59.928;10.878;2024-01-06T12:27:32;13.48;;;6.20;;
80725;SDS011;70113;59.928;10.878;2024-01-06T12:29:58;14.55;;;7.03;;
80725;SDS011;70113;59.928;10.878;2024-01-06T12:32:24;16.00;;;6.65;;
80725;SDS011;70113;59.928;10.878;2024-01-06T12:34:50;15.57;;;5.90;;
80725;SDS011;70113;59.928;10.878;2024-01-06T12:37:16;16.00;;;6.25;;
80725;SDS011;70113;59.928;10.878;2024-01-06T12:39:42;14.85;;;6.70;;
80725;SDS011;70113;59.928;10.878;2024-01-06T12:42:10;14.55;;;7.28;;
80725;SDS011;70113;59.928;10.878;2024-01-06T12:44:36;13.43;;;5.72;;
80725;SDS011;70113;59.928;10.878;2024-01-06T12:47:04;16.05;;;7.30;;
80725;SDS011;70113;59.928;10.878;2024-01-06T12:49:30;10.57;;;5.68;;
80725;SDS011;70113;59.928;10.878;2024-01-06T12:51:55;12.90;;;6.60;;
80725;SDS011;70113;59.928;10.878;2024-01-06T12:54:21;17.90;;;7.32;;
80725;SDS011;70113;59.928;10.878;2024-01-06T12:56:46;12.38;;;5.70;;
80725;SDS011;70113;59.928;10.878;2024-01-06T12:59:12;12.85;;;6.70;;
80725;SDS011;70113;59.928;10.878;2024-01-06T13:01:38;13.80;;;6.72;;
80725;SDS011;70113;59.928;10.878;2024-01-06T13:04:04;11.38;;;6.93;;
80725;SDS011;70113;59.928;10.878;2024-01-06T13:06:30;11.23;;;6.53;;
80725;SDS011;70113;59.928;10.878;2024-01-06T13:08:56;14.70;;;4.75;;
80725;SDS011;70113;59.928;10.878;2024-01-06T13:11:21;16.85;;;7.20;;
80725;SDS011;70113;59.928;10.878;2024-01-06T13:13:47;18.17;;;6.57;;
80725;SDS011;70113;59.928;10.878;2024-01-06T13:16:13;8.98;;;4.57;;
80725;SDS011;70113;59.928;10.878;2024-01-06T13:18:38;9.55;;;4.20;;
80725;SDS011;70113;59.928;10.878;2024-01-06T13:21:04;8.48;;;4.20;;
80725;SDS011;70113;59.928;10.878;2024-01-06T13:23:30;12.10;;;4.88;;
80725;SDS011;70113;59.928;10.878;2024-01-06T13:25:56;8.55;;;3.55;;
80725;SDS011;70113;59.928;10.878;2024-01-06T13:28:23;11.45;;;4.55;;
80725;SDS011;70113;59.928;10.878;2024-01-06T13:30:50;13.20;;;5.78;;
80725;SDS011;70113;59.928;10.878;2024-01-06T13:33:15;10.70;;;4.45;;
80725;SDS011;70113;59.928;10.878;2024-01-06T13:35:41;16.30;;;6.20;;
80725;SDS011;70113;59.928;10.878;2024-01-06T13:38:07;9.48;;;4.40;;
80725;SDS011;70113;59.928;10.878;2024-01-06T13:40:34;7.03;;;3.05;;
80725;SDS011;70113;59.928;10.878;2024-01-06T13:43:00;9.30;;;4.15;;
80725;SDS011;70113;59.928;10.878;2024-01-06T13:45:25;14.30;;;4.80;;
80725;SDS011;70113;59.928;10.878;2024-01-06T13:47:52;9.35;;;4.80;;
80725;SDS011;70113;59.928;10.878;2024-01-06T13:50:18;9.48;;;3.55;;
80725;SDS011;70113;59.928;10.878;2024-01-06T13:52:44;15.60;;;6.65;;
80725;SDS011;70113;59.928;10.878;2024-01-06T13:55:11;6.95;;;4.28;;
80725;SDS011;70113;59.928;10.878;2024-01-06T13:57:37;11.50;;;4.65;;
80725;SDS011;70113;59.928;10.878;2024-01-06T14:00:09;9.23;;;4.47;;
80725;SDS011;70113;59.928;10.878;2024-01-06T14:02:36;9.98;;;4.13;;
80725;SDS011;70113;59.928;10.878;2024-01-06T14:05:02;7.85;;;4.10;;
80725;SDS011;70113;59.928;10.878;2024-01-06T14:07:27;7.95;;;2.90;;
80725;SDS011;70113;59.928;10.878;2024-01-06T14:09:53;7.93;;;4.10;;
80725;SDS011;70113;59.928;10.878;2024-01-06T14:12:18;6.82;;;3.25;;
80725;SDS011;70113;59.928;10.878;2024-01-06T14:14:44;9.68;;;4.30;;
80725;SDS011;70113;59.928;10.878;2024-01-06T14:17:11;9.25;;;3.92;;
80725;SDS011;70113;59.928;10.878;2024-01-06T14:19:37;11.25;;;4.43;;
80725;SDS011;70113;59.928;10.878;2024-01-06T14:22:02;9.70;;;4.28;;
80725;SDS011;70113;59.928;10.878;2024-01-06T14:24:30;12.85;;;4.88;;
80725;SDS011;70113;59.928;10.878;2024-01-06T14:26:56;10.27;;;3.92;;
80725;SDS011;70113;59.928;10.878;2024-01-06T14:29:22;10.45;;;4.00;;
80725;SDS011;70113;59.928;10.878;2024-01-06T14:31:47;9.23;;;3.60;;
80725;SDS011;70113;59.928;10.878;2024-01-06T14:34:14;10.27;;;3.40;;
80725;SDS011;70113;59.928;10.878;2024-01-06T14:36:39;7.13;;;2.72;;
80725;SDS011;70113;59.928;10.878;2024-01-06T14:39:15;8.00;;;2.90;;
80725;SDS011;70113;59.928;10.878;2024-01-06T14:45:03;6.07;;;3.10;;
80725;SDS011;70113;59.928;10.878;2024-01-06T14:47:29;7.35;;;3.10;;
80725;SDS011;70113;59.928;10.878;2024-01-06T14:49:54;8.38;;;3.50;;
80725;SDS011;70113;59.928;10.878;2024-01-06T14:52:20;10.18;;;3.78;;
80725;SDS011;70113;59.928;10.878;2024-01-06T14:54:46;8.63;;;4.85;;
80725;SDS011;70113;59.928;10.878;2024-01-06T15:27:41;12.82;;;4.32;;
80725;SDS011;70113;59.928;10.878;2024-01-06T15:30:06;9.10;;;3.63;;
80725;SDS011;70113;59.928;10.878;2024-01-06T15:32:36;10.15;;;4.35;;
80725;SDS011;70113;59.928;10.878;2024-01-06T15:35:02;10.45;;;4.80;;
80725;SDS011;70113;59.928;10.878;2024-01-06T15:37:29;11.93;;;4.28;;
80725;SDS011;70113;59.928;10.878;2024-01-06T15:39:54;14.13;;;5.00;;
80725;SDS011;70113;59.928;10.878;2024-01-06T15:42:20;9.55;;;4.18;;
80725;SDS011;70113;59.928;10.878;2024-01-06T15:44:46;11.27;;;4.35;;
80725;SDS011;70113;59.928;10.878;2024-01-06T15:47:11;11.20;;;4.55;;
80725;SDS011;70113;59.928;10.878;2024-01-06T16:49:21;9.20;;;4.13;;
80725;SDS011;70113;59.928;10.878;2024-01-06T16:51:46;8.25;;;4.30;;
80725;SDS011;70113;59.928;10.878;2024-01-06T16:54:12;6.43;;;3.38;;
80725;SDS011;70113;59.928;10.878;2024-01-06T16:56:37;6.10;;;2.92;;
80725;SDS011;70113;59.928;10.878;2024-01-06T16:59:03;6.90;;;3.33;;
80725;SDS011;70113;59.928;10.878;2024-01-06T17:01:29;9.45;;;3.55;;
80725;SDS011;70113;59.928;10.878;2024-01-06T17:03:54;11.88;;;5.93;;
80725;SDS011;70113;59.928;10.878;2024-01-06T17:06:21;13.65;;;7.28;;
80725;SDS011;70113;59.928;10.878;2024-01-06T17:08:46;20.45;;;7.90;;
80725;SDS011;70113;59.928;10.878;2024-01-06T17:11:12;15.60;;;7.95;;
80725;SDS011;70113;59.928;10.878;2024-01-06T17:13:37;18.55;;;7.93;;
80725;SDS011;70113;59.928;10.878;2024-01-06T17:16:04;23.33;;;9.55;;
80725;SDS011;70113;59.928;10.878;2024-01-06T17:18:29;22.15;;;11.88;;
80725;SDS011;70113;59.928;10.878;2024-01-06T17:20:55;25.00;;;12.93;;
80725;SDS011;70113;59.928;10.878;2024-01-06T17:23:20;19.48;;;11.05;;
80725;SDS011;70113;59.928;10.878;2024-01-06T17:25:46;19.77;;;9.95;;
80725;SDS011;70113;59.928;10.878;2024-01-06T17:28:12;21.38;;;10.20;;
80725;SDS011;70113;59.928;10.878;2024-01-06T17:30:37;19.45;;;8.43;;
80725;SDS011;70113;59.928;10.878;2024-01-06T17:33:03;18.98;;;8.38;;
80725;SDS011;70113;59.928;10.878;2024-01-06T17:35:29;20.00;;;8.63;;
80725;SDS011;70113;59.928;10.878;2024-01-06T17:37:54;12.73;;;6.60;;
80725;SDS011;70113;59.928;10.878;2024-01-06T17:40:20;15.43;;;5.75;;
80725;SDS011;70113;59.928;10.878;2024-01-06T17:42:45;14.18;;;7.85;;
80725;SDS011;70113;59.928;10.878;2024-01-06T17:45:11;15.88;;;7.88;;
80725;SDS011;70113;59.928;10.878;2024-01-06T17:47:37;17.52;;;8.85;;